Strassen, Luxembourg
Current Conditions -  °F | °C
As of 3:20 PM on Friday 24 Oct 2014 (Local Time) from ELLX Reporting Station
Clear Clear  
Wind Chill: 52°   Ceiling: Unl
Heat Index: 52°   Visibility: 6mi
Dew Point: 41°   Wind: 5mph
Humidity: 67%   Direction: 160°SSE
Pressure: 30.12"   Gusts: NA
Location:  49.62°N, 6.07°E
Report Text: ELLX 241320Z 16004KT 110V200 CAVOK 11/05 Q1020 NOSIG
Loading
Personal Weather Stations






























Interactive Weather Map
Tropical Storm Tracking
New forecast layout! Learn more

10-Day Weather Forecast

Advertisements
Track Severe Weather on mobile